Terminal Aerodrome Forecast
Issued by NWS

Home | Current Version | Previous Version | Text Only | Print | Product List | Glossary On
Versions: 1 2 3 4 5 6 7 8 9 10 11 12 13 14 15 16
416
FTUS44 KTSA 300243 AAA
TAFMLC
TAF AMD
KMLC 300243Z 3003/3024 29010KT 6SM -SHRA BR BKN025
      TEMPO 3003/3005 3SM -TSRA BR OVC007CB
     FM300500 28012G18KT P6SM VCTS BKN020CB
     FM300700 21012G18KT P6SM OVC007
     FM301300 24015G25KT P6SM OVC015
     FM301800 26018G28KT P6SM OVC025=

USA.gov is the U.S. government's official web portal to all federal, state and local government web resources and services.